Time,TemperatureF,DewpointF,PressureIn,WindDirection,WindDirectionDegrees,WindSpeedMPH,WindSpeedGustMPH,Humidity,HourlyPrecipIn,Conditions,Clouds,dailyrainin,SoftwareType,DateUTC
2013-06-25 00:02:00,56.0,52.0,29.72,NNW,328,0.0,0.0,88,0.00,,,0.11,,2013-06-25 07:02:00,
2013-06-25 00:43:00,55.0,52.0,29.72,West,270,0.0,0.0,89,0.00,,,0.11,,2013-06-25 07:43:00,
2013-06-25 00:52:00,55.0,52.0,29.72,SW,214,0.0,0.0,89,0.00,,,0.11,,2013-06-25 07:52:00,
2013-06-25 01:01:00,55.0,52.0,29.72,SW,214,0.0,0.0,89,0.00,,,0.11,,2013-06-25 08:01:00,
2013-06-25 01:11:00,55.0,52.0,29.72,NNE,19,0.0,0.0,89,0.00,,,0.11,,2013-06-25 08:11:00,
2013-06-25 01:52:00,56.0,53.0,29.72,NE,51,2.0,3.0,89,0.00,,,0.11,,2013-06-25 08:52:00,
2013-06-25 02:01:00,56.0,53.0,29.72,SW,224,1.0,3.0,90,0.01,,,0.12,,2013-06-25 09:01:00,
2013-06-25 02:12:00,56.0,53.0,29.72,NE,38,0.0,1.0,89,0.01,,,0.12,,2013-06-25 09:12:00,
2013-06-25 02:21:00,56.0,53.0,29.72,WNW,287,0.0,0.0,90,0.01,,,0.12,,2013-06-25 09:21:00,
2013-06-25 02:52:00,56.0,53.0,29.72,ESE,108,0.0,3.0,89,0.01,,,0.12,,2013-06-25 09:52:00,
2013-06-25 03:01:00,56.0,53.0,29.72,NNE,28,0.0,0.0,89,0.01,,,0.12,,2013-06-25 10:01:00,
2013-06-25 03:11:00,56.0,53.0,29.72,SE,141,0.0,0.0,89,0.00,,,0.12,,2013-06-25 10:11:00,
2013-06-25 03:33:00,55.0,52.0,29.72,WNW,296,0.0,0.0,90,0.00,,,0.12,,2013-06-25 10:33:00,
2013-06-25 03:42:00,56.0,53.0,29.72,West,274,0.0,3.0,90,0.00,,,0.12,,2013-06-25 10:42:00,
2013-06-25 03:52:00,56.0,53.0,29.72,East,88,0.0,4.0,90,0.00,,,0.12,,2013-06-25 10:52:00,
2013-06-25 04:01:00,56.0,53.0,29.72,NNE,32,0.0,1.0,90,0.00,,,0.12,,2013-06-25 11:01:00,
2013-06-25 04:11:00,56.0,53.0,29.72,WNW,297,1.0,6.0,90,0.00,,,0.12,,2013-06-25 11:11:00,
2013-06-25 04:21:00,56.0,53.0,29.72,SE,126,1.0,2.0,90,0.00,,,0.12,,2013-06-25 11:21:00,
2013-06-25 04:34:00,56.0,53.0,29.73,WNW,288,0.0,0.0,90,0.00,,,0.12,,2013-06-25 11:34:00,
2013-06-25 04:43:00,56.0,53.0,29.75,WNW,283,0.0,0.0,90,0.00,,,0.12,,2013-06-25 11:43:00,
2013-06-25 04:52:00,56.0,53.0,29.73,East,93,0.0,0.0,89,0.00,,,0.12,,2013-06-25 11:52:00,
2013-06-25 05:01:00,55.0,52.0,29.73,East,91,0.0,0.0,89,0.00,,,0.12,,2013-06-25 12:01:00,
2013-06-25 05:11:00,55.0,52.0,29.73,South,187,0.0,2.0,90,0.00,,,0.12,,2013-06-25 12:11:00,
2013-06-25 05:43:00,55.0,52.0,29.75,NW,322,0.0,1.0,90,0.00,,,0.12,,2013-06-25 12:43:00,
2013-06-25 05:55:00,54.0,51.0,29.75,WNW,296,0.0,1.0,90,0.00,,,0.12,,2013-06-25 12:55:00,
2013-06-25 06:01:00,54.0,51.0,29.75,ENE,61,0.0,0.0,90,0.00,,,0.12,,2013-06-25 13:01:00,
2013-06-25 06:34:00,54.0,51.0,29.75,NNE,22,0.0,0.0,90,0.00,,,0.12,,2013-06-25 13:34:00,
2013-06-25 06:53:00,55.0,52.0,29.75,East,90,0.0,0.0,91,0.00,,,0.11,,2013-06-25 13:53:00,
2013-06-25 07:53:00,57.0,54.0,29.75,North,358,0.0,1.0,90,0.05,,,0.16,,2013-06-25 14:53:00,
2013-06-25 08:01:00,57.0,54.0,29.75,North,0,0.0,0.0,89,0.06,,,0.17,,2013-06-25 15:01:00,
2013-06-25 08:11:00,57.0,54.0,29.75,NW,320,0.0,0.0,90,0.06,,,0.17,,2013-06-25 15:11:00,
2013-06-25 08:53:00,58.0,54.0,29.75,ENE,61,1.0,3.0,86,0.04,,,0.17,,2013-06-25 15:53:00,
2013-06-25 09:03:00,59.0,55.0,29.77,ENE,66,1.0,3.0,86,0.04,,,0.17,,2013-06-25 16:03:00,
2013-06-25 09:12:00,59.0,54.0,29.75,NE,36,0.0,3.0,85,0.02,,,0.17,,2013-06-25 16:12:00,
2013-06-25 09:34:00,59.0,55.0,29.77,NNE,22,0.0,2.0,87,0.02,,,0.20,,2013-06-25 16:34:00,
2013-06-25 09:43:00,59.0,55.0,29.77,WNW,297,0.0,3.0,87,0.03,,,0.21,,2013-06-25 16:43:00,
2013-06-25 09:52:00,59.0,55.0,29.77,NNW,336,0.0,2.0,86,0.03,,,0.21,,2013-06-25 16:52:00,
2013-06-25 10:01:00,60.0,55.0,29.75,North,357,0.0,1.0,84,0.04,,,0.22,,2013-06-25 17:01:00,
2013-06-25 10:11:00,60.0,54.0,29.75,North,1,1.0,1.0,82,0.04,,,0.22,,2013-06-25 17:11:00,
2013-06-25 10:43:00,61.0,58.0,29.77,NNE,21,1.0,5.0,90,0.11,,,0.32,,2013-06-25 17:43:00,
2013-06-25 10:53:00,63.0,58.0,29.77,NNW,341,1.0,2.0,85,0.11,,,0.32,,2013-06-25 17:53:00,
2013-06-25 11:02:00,63.0,57.0,29.77,NNE,23,0.0,3.0,81,0.10,,,0.32,,2013-06-25 18:02:00,
2013-06-25 11:12:00,63.0,56.0,29.77,SE,124,1.0,3.0,79,0.09,,,0.32,,2013-06-25 18:12:00,
2013-06-25 11:33:00,64.0,56.0,29.77,NNE,19,1.0,3.0,74,0.08,,,0.32,,2013-06-25 18:33:00,
2013-06-25 11:44:00,65.0,56.0,29.77,NE,34,1.0,5.0,73,0.03,,,0.30,,2013-06-25 18:44:00,
2013-06-25 11:52:00,66.0,57.0,29.77,ESE,103,1.0,5.0,73,0.00,,,0.30,,2013-06-25 18:52:00,
2013-06-25 12:01:00,67.0,57.0,29.77,ENE,64,2.0,4.0,70,0.00,,,0.30,,2013-06-25 19:01:00,
2013-06-25 12:44:00,70.0,55.0,29.77,South,174,1.0,3.0,60,0.00,,,0.30,,2013-06-25 19:44:00,
2013-06-25 12:53:00,70.0,57.0,29.77,SSW,196,0.0,3.0,63,0.00,,,0.30,,2013-06-25 19:53:00,
2013-06-25 13:01:00,69.0,55.0,29.77,NNE,18,1.0,2.0,61,0.00,,,0.30,,2013-06-25 20:01:00,
2013-06-25 13:52:00,69.0,56.0,29.78,SSW,209,1.0,4.0,63,0.00,,,0.30,,2013-06-25 20:52:00,
2013-06-25 14:01:00,66.0,57.0,29.78,South,189,1.0,4.0,72,0.01,,,0.31,,2013-06-25 21:01:00,
2013-06-25 14:11:00,61.0,56.0,29.81,WSW,255,6.0,16.0,85,0.20,,,0.50,,2013-06-25 21:11:00,
2013-06-25 14:22:00,60.0,56.0,29.81,SW,222,3.0,17.0,87,0.29,,,0.60,,2013-06-25 21:22:00,
2013-06-25 14:33:00,61.0,57.0,29.81,SW,234,2.0,7.0,86,0.29,,,0.60,,2013-06-25 21:33:00,
2013-06-25 14:43:00,64.0,59.0,29.83,West,272,3.0,6.0,83,0.29,,,0.60,,2013-06-25 21:43:00,
2013-06-25 14:53:00,64.0,58.0,29.83,West,271,4.0,8.0,81,0.29,,,0.60,,2013-06-25 21:53:00,
2013-06-25 15:01:00,65.0,58.0,29.83,West,271,1.0,5.0,79,0.29,,,0.60,,2013-06-25 22:01:00,
2013-06-25 15:11:00,65.0,57.0,29.83,West,272,3.0,5.0,76,0.28,,,0.60,,2013-06-25 22:11:00,
2013-06-25 15:22:00,66.0,58.0,29.83,WSW,245,3.0,5.0,75,0.01,,,0.60,,2013-06-25 22:22:00,
2013-06-25 15:33:00,66.0,57.0,29.83,West,271,1.0,5.0,72,0.01,,,0.60,,2013-06-25 22:33:00,
2013-06-25 15:42:00,65.0,55.0,29.85,WNW,303,0.0,3.0,71,0.00,,,0.60,,2013-06-25 22:42:00,
2013-06-25 15:52:00,64.0,55.0,29.85,NNE,26,0.0,4.0,73,0.00,,,0.60,,2013-06-25 22:52:00,
2013-06-25 16:01:00,65.0,56.0,29.85,ESE,117,1.0,2.0,74,0.00,,,0.60,,2013-06-25 23:01:00,
2013-06-25 16:11:00,64.0,56.0,29.85,SSW,209,0.0,2.0,75,0.00,,,0.60,,2013-06-25 23:11:00,
2013-06-25 16:34:00,64.0,56.0,29.85,WNW,282,3.0,5.0,75,0.00,,,0.60,,2013-06-25 23:34:00,
2013-06-25 16:43:00,63.0,55.0,29.85,SW,233,0.0,5.0,76,0.00,,,0.60,,2013-06-25 23:43:00,
2013-06-25 16:52:00,63.0,56.0,29.85,SSW,196,1.0,3.0,78,0.01,,,0.61,,2013-06-25 23:52:00,
2013-06-25 18:32:00,62.0,57.0,29.86,ENE,76,3.0,5.0,83,0.03,,,0.68,,2013-06-26 01:32:00,
2013-06-25 18:43:00,61.0,56.0,29.86,ENE,69,1.0,4.0,84,0.00,,,0.68,,2013-06-26 01:43:00,
2013-06-25 18:52:00,61.0,56.0,29.86,NE,36,1.0,2.0,84,0.00,,,0.68,,2013-06-26 01:52:00,
2013-06-25 19:01:00,61.0,56.0,29.86,North,358,0.0,2.0,84,0.01,,,0.69,,2013-06-26 02:01:00,
2013-06-25 19:11:00,61.0,56.0,29.86,North,5,0.0,2.0,85,0.02,,,0.70,,2013-06-26 02:11:00,
2013-06-25 19:34:00,59.0,54.0,29.88,SE,144,2.0,4.0,85,0.18,,,0.87,,2013-06-26 02:34:00,
2013-06-25 19:43:00,59.0,55.0,29.88,NW,310,2.0,3.0,86,0.18,,,0.86,,2013-06-26 02:43:00,
2013-06-25 19:53:00,59.0,55.0,29.88,West,260,0.0,3.0,87,0.30,,,0.97,,2013-06-26 02:53:00,
2013-06-25 20:01:00,58.0,54.0,29.88,WSW,253,1.0,2.0,87,0.31,,,0.98,,2013-06-26 03:01:00,
2013-06-25 20:11:00,58.0,54.0,29.88,SE,133,0.0,0.0,87,0.32,,,0.99,,2013-06-26 03:11:00,
2013-06-25 20:22:00,59.0,55.0,29.88,NNE,26,0.0,0.0,88,0.25,,,0.99,,2013-06-26 03:22:00,
2013-06-25 20:33:00,58.0,54.0,29.88,North,351,0.0,0.0,88,0.25,,,0.99,,2013-06-26 03:33:00,
2013-06-25 20:43:00,59.0,55.0,29.88,SSW,207,0.0,0.0,87,0.14,,,0.99,,2013-06-26 03:43:00,
2013-06-25 20:52:00,59.0,55.0,29.88,SSE,160,0.0,0.0,88,0.08,,,1.00,,2013-06-26 03:52:00,
2013-06-25 21:01:00,58.0,54.0,29.88,ENE,58,0.0,0.0,88,0.08,,,1.00,,2013-06-26 04:01:00,
2013-06-25 21:11:00,58.0,55.0,29.88,NE,44,0.0,2.0,89,0.01,,,1.00,,2013-06-26 04:11:00,
2013-06-25 21:21:00,58.0,55.0,29.88,East,91,2.0,2.0,89,0.01,,,1.00,,2013-06-26 04:21:00,
2013-06-25 21:33:00,58.0,54.0,29.88,ENE,61,2.0,3.0,88,0.01,,,1.00,,2013-06-26 04:33:00,
2013-06-25 21:43:00,58.0,55.0,29.90,NE,47,2.0,3.0,90,0.01,,,1.00,,2013-06-26 04:43:00,
2013-06-25 21:53:00,58.0,55.0,29.90,NE,43,2.0,4.0,90,0.00,,,1.00,,2013-06-26 04:53:00,
2013-06-25 22:02:00,58.0,55.0,29.90,NE,46,1.0,2.0,90,0.00,,,1.00,,2013-06-26 05:02:00,
2013-06-25 22:11:00,58.0,55.0,29.90,NE,52,1.0,2.0,90,0.00,,,1.00,,2013-06-26 05:11:00,
2013-06-25 22:33:00,58.0,55.0,29.91,NE,55,2.0,3.0,89,0.00,,,1.00,,2013-06-26 05:33:00,
2013-06-25 22:43:00,58.0,55.0,29.91,East,83,1.0,3.0,90,0.00,,,1.00,,2013-06-26 05:43:00,
2013-06-25 23:01:00,57.0,54.0,29.90,East,93,0.0,3.0,90,0.00,,,1.00,,2013-06-26 06:01:00,
2013-06-25 23:11:00,57.0,54.0,29.90,ESE,105,1.0,2.0,90,0.00,,,1.00,,2013-06-26 06:11:00,
2013-06-25 23:34:00,57.0,54.0,29.90,NE,54,0.0,3.0,90,0.00,,,1.00,,2013-06-26 06:34:00,
2013-06-25 23:43:00,57.0,54.0,29.90,ENE,73,0.0,2.0,90,0.00,,,1.00,,2013-06-26 06:43:00,
2013-06-25 23:53:00,57.0,54.0,29.90,SE,133,1.0,3.0,90,0.00,,,1.00,,2013-06-26 06:53:00,